createdAt,value
2022-10-29T00:00:17.440Z,2.75
2022-10-29T00:00:50.612Z,2.53
2022-10-29T00:01:23.493Z,3.63
2022-10-29T00:01:55.658Z,2.90
2022-10-29T00:02:27.537Z,3.47
2022-10-29T00:03:00.774Z,3.33
2022-10-29T00:03:33.580Z,3.28
2022-10-29T00:04:05.696Z,3.05
2022-10-29T00:04:37.457Z,2.97
2022-10-29T00:05:09.419Z,3.40
2022-10-29T00:05:42.204Z,3.55
2022-10-29T00:06:14.819Z,2.80
2022-10-29T00:07:20.931Z,3.00
2022-10-29T00:07:53.022Z,2.70
2022-10-29T00:08:25.224Z,2.75
2022-10-29T00:08:58.048Z,3.10
2022-10-29T00:09:29.872Z,3.05
2022-10-29T00:10:01.660Z,3.05
2022-10-29T00:10:33.576Z,2.75
2022-10-29T00:11:08.063Z,3.15
2022-10-29T00:11:40.005Z,3.33
2022-10-29T00:12:11.803Z,3.13
2022-10-29T00:12:44.542Z,2.50
2022-10-29T00:13:16.321Z,3.22
2022-10-29T00:13:52.591Z,2.53
2022-10-29T00:14:25.431Z,2.42
2022-10-29T00:14:57.185Z,3.13
2022-10-29T00:15:29.062Z,2.38
2022-10-29T00:16:05.681Z,3.10
2022-10-29T00:16:39.587Z,3.05
2022-10-29T00:17:11.355Z,3.30
2022-10-29T00:17:44.160Z,2.60
2022-10-29T00:18:17.749Z,3.53
2022-10-29T00:18:50.553Z,2.70
2022-10-29T00:19:22.403Z,3.33
2022-10-29T00:19:54.273Z,4.03
2022-10-29T00:20:26.216Z,4.65
2022-10-29T00:21:02.620Z,2.90
2022-10-29T00:21:34.515Z,4.05
2022-10-29T00:22:06.333Z,2.72
2022-10-29T00:22:39.135Z,2.75
2022-10-29T00:23:10.918Z,2.83
2022-10-29T00:23:43.183Z,3.15
2022-10-29T00:24:16.035Z,2.42
2022-10-29T00:24:47.901Z,2.92
2022-10-29T00:25:19.723Z,2.40
2022-10-29T00:25:56.477Z,3.00
2022-10-29T00:26:30.669Z,1.92
2022-10-29T00:27:02.547Z,2.70
2022-10-29T00:27:34.335Z,2.80
2022-10-29T00:28:07.134Z,3.45
2022-10-29T00:28:39.248Z,3.40
2022-10-29T00:29:11.069Z,3.10
2022-10-29T00:29:42.887Z,2.83
2022-10-29T00:30:16.054Z,3.40
2022-10-29T00:30:47.872Z,3.10
2022-10-29T00:31:19.837Z,3.53
2022-10-29T00:31:52.712Z,3.35
2022-10-29T00:32:24.593Z,3.33
2022-10-29T00:32:56.512Z,2.40
2022-10-29T00:33:30.888Z,3.10
2022-10-29T00:34:03.156Z,3.60
2022-10-29T00:34:34.952Z,3.50
2022-10-29T00:35:07.147Z,3.33
2022-10-29T00:35:39.962Z,3.40
2022-10-29T00:36:13.735Z,3.25
2022-10-29T00:36:45.536Z,3.47
2022-10-29T00:37:18.294Z,3.17
2022-10-29T00:37:50.098Z,3.42
2022-10-29T00:38:21.924Z,2.92
2022-10-29T00:38:54.750Z,3.78
2022-10-29T00:39:26.562Z,3.50
2022-10-29T00:39:58.387Z,3.15
2022-10-29T00:40:31.180Z,3.65
2022-10-29T00:41:03.750Z,2.90
2022-10-29T00:41:35.615Z,3.05
2022-10-29T00:42:15.916Z,2.75
2022-10-29T00:42:47.697Z,3.75
2022-10-29T00:43:21.423Z,3.17
2022-10-29T00:44:26.229Z,3.13
2022-10-29T00:44:58.062Z,3.60
2022-10-29T00:45:30.803Z,3.45
2022-10-29T00:46:05.589Z,2.70
2022-10-29T00:47:19.070Z,3.58
2022-10-29T00:47:53.236Z,2.97
2022-10-29T00:48:27.583Z,3.90
2022-10-29T00:49:02.440Z,2.90
2022-10-29T00:49:35.344Z,2.60
2022-10-29T00:50:10.449Z,2.60
2022-10-29T00:50:44.798Z,3.33
2022-10-29T00:51:17.679Z,2.58
2022-10-29T00:51:49.644Z,4.05
2022-10-29T00:52:24.453Z,2.95
2022-10-29T00:52:57.005Z,3.30
2022-10-29T00:53:33.398Z,3.67
2022-10-29T00:54:08.393Z,3.70
2022-10-29T00:54:45.043Z,3.00
2022-10-29T00:55:18.191Z,3.00
2022-10-29T00:55:50.277Z,3.70
2022-10-29T00:56:24.759Z,2.40
2022-10-29T00:56:59.917Z,2.65
2022-10-29T00:57:37.175Z,3.33
2022-10-29T00:58:11.545Z,3.30
2022-10-29T00:58:44.367Z,3.03
2022-10-29T00:59:17.181Z,2.95
2022-10-29T00:59:50.720Z,2.47
2022-10-29T01:00:23.051Z,3.00
2022-10-29T01:00:55.075Z,3.10
2022-10-29T01:01:28.189Z,3.15
2022-10-29T01:02:00.208Z,2.97
2022-10-29T01:02:35.101Z,3.15
2022-10-29T01:03:08.057Z,3.45
2022-10-29T01:03:39.966Z,4.03
2022-10-29T01:04:13.408Z,2.75
2022-10-29T01:04:47.152Z,2.70
2022-10-29T01:05:21.704Z,2.33
2022-10-29T01:05:54.000Z,3.80
2022-10-29T01:06:29.252Z,2.80
2022-10-29T01:07:01.726Z,3.45
2022-10-29T01:07:34.357Z,3.28
2022-10-29T01:08:07.429Z,3.42
2022-10-29T01:08:39.206Z,4.13
2022-10-29T01:09:10.990Z,4.15
2022-10-29T01:09:42.881Z,3.00
2022-10-29T01:10:37.424Z,3.42
2022-10-29T01:11:19.163Z,3.63
2022-10-29T01:12:03.648Z,3.63
2022-10-29T01:12:56.318Z,3.50
2022-10-29T01:13:41.322Z,3.47
2022-10-29T01:14:26.532Z,2.60
2022-10-29T01:15:10.234Z,3.45
2022-10-29T01:15:49.193Z,3.15
2022-10-29T01:16:32.716Z,2.85
2022-10-29T01:17:10.617Z,3.17
2022-10-29T01:17:58.666Z,3.92
2022-10-29T01:18:37.649Z,3.35
2022-10-29T01:19:20.726Z,3.47
2022-10-29T01:20:20.541Z,4.32
2022-10-29T01:21:20.378Z,3.20
2022-10-29T01:21:56.340Z,2.78
2022-10-29T01:22:35.115Z,3.30
2022-10-29T01:23:25.112Z,3.85
2022-10-29T01:24:28.003Z,3.75
2022-10-29T01:25:15.043Z,3.47
2022-10-29T01:26:11.116Z,3.08
2022-10-29T01:27:07.966Z,3.33
2022-10-29T01:28:06.259Z,2.90
2022-10-29T01:28:55.187Z,2.80
2022-10-29T01:29:44.961Z,4.00
2022-10-29T01:30:24.381Z,3.60
2022-10-29T01:31:21.912Z,3.90
2022-10-29T01:31:58.641Z,2.70
2022-10-29T01:32:33.252Z,3.10
2022-10-29T01:33:10.292Z,2.75
2022-10-29T01:33:54.108Z,3.40
2022-10-29T01:34:32.976Z,3.55
2022-10-29T01:35:13.174Z,3.53
2022-10-29T01:35:55.417Z,3.13
2022-10-29T01:36:32.833Z,3.53
2022-10-29T01:37:14.696Z,3.47
2022-10-29T01:37:57.266Z,3.33
2022-10-29T01:38:37.381Z,3.75
2022-10-29T01:39:26.892Z,3.45
2022-10-29T01:40:06.164Z,2.97
2022-10-29T01:40:47.331Z,4.03
2022-10-29T01:41:27.319Z,3.80
2022-10-29T01:42:06.327Z,3.08
2022-10-29T01:42:40.418Z,3.95
2022-10-29T01:43:16.046Z,3.55
2022-10-29T01:43:51.788Z,3.30
2022-10-29T01:44:33.380Z,3.10
2022-10-29T01:45:14.124Z,3.45
2022-10-29T01:45:52.433Z,3.17
2022-10-29T01:46:31.794Z,3.80
2022-10-29T01:47:06.086Z,3.53
2022-10-29T01:47:42.268Z,3.50
2022-10-29T01:48:19.131Z,3.58
2022-10-29T01:48:55.654Z,3.05
2022-10-29T01:49:32.836Z,4.40
2022-10-29T01:50:08.877Z,4.10
2022-10-29T01:50:46.436Z,2.75
2022-10-29T01:51:22.019Z,3.15
2022-10-29T01:51:55.911Z,5.18
2022-10-29T01:52:32.251Z,2.95
2022-10-29T01:53:05.343Z,3.40
2022-10-29T01:53:38.452Z,6.35
2022-10-29T01:54:12.507Z,3.13
2022-10-29T01:54:46.181Z,2.88
2022-10-29T01:55:20.809Z,3.53
2022-10-29T01:55:52.634Z,3.60
2022-10-29T01:56:25.529Z,3.20
2022-10-29T01:56:58.479Z,3.67
2022-10-29T01:57:32.510Z,3.40
2022-10-29T01:58:06.579Z,3.50
2022-10-29T01:58:42.004Z,3.13
2022-10-29T01:59:23.068Z,2.88
2022-10-29T02:00:09.307Z,2.78
2022-10-29T02:00:49.084Z,3.05
2022-10-29T02:01:37.850Z,3.53
2022-10-29T02:02:15.815Z,3.78
2022-10-29T02:03:02.457Z,3.30
2022-10-29T02:03:39.816Z,3.00
2022-10-29T02:04:33.271Z,3.53
2022-10-29T02:05:12.434Z,3.85
2022-10-29T02:05:52.341Z,3.90
2022-10-29T02:06:36.183Z,3.70
2022-10-29T02:07:17.311Z,3.22
2022-10-29T02:07:54.364Z,3.03
2022-10-29T02:08:33.617Z,3.58
2022-10-29T02:09:11.000Z,3.25
2022-10-29T02:09:48.621Z,3.05
2022-10-29T02:10:28.865Z,3.63
2022-10-29T02:11:07.463Z,3.35
2022-10-29T02:11:47.349Z,3.83
2022-10-29T02:12:24.565Z,3.60
2022-10-29T02:12:57.705Z,2.83
2022-10-29T02:13:32.964Z,2.92
2022-10-29T02:14:09.726Z,4.97
2022-10-29T02:14:47.351Z,3.05
2022-10-29T02:15:24.466Z,3.78
2022-10-29T02:15:57.647Z,4.38
2022-10-29T02:16:33.044Z,3.63
2022-10-29T02:17:07.235Z,3.22
2022-10-29T02:17:39.310Z,2.80
2022-10-29T02:18:11.386Z,3.22
2022-10-29T02:18:46.385Z,3.75
2022-10-29T02:19:18.306Z,3.47
2022-10-29T02:19:50.237Z,3.90
2022-10-29T02:20:23.171Z,3.65
2022-10-29T02:20:54.959Z,3.50
2022-10-29T02:21:26.858Z,3.10
2022-10-29T02:21:59.910Z,3.10
2022-10-29T02:22:31.823Z,4.57
2022-10-29T02:23:03.635Z,3.25
2022-10-29T02:23:36.491Z,3.28
2022-10-29T02:24:08.887Z,3.75
2022-10-29T02:24:40.762Z,3.80
2022-10-29T02:25:13.642Z,3.95
2022-10-29T02:25:45.525Z,3.67
2022-10-29T02:26:17.615Z,4.75
2022-10-29T02:26:50.348Z,4.80
2022-10-29T02:27:22.160Z,3.90
2022-10-29T02:27:54.261Z,3.35
2022-10-29T02:28:27.175Z,3.45
2022-10-29T02:28:59.108Z,3.60
2022-10-29T02:29:30.869Z,4.47
2022-10-29T02:30:03.886Z,4.75
2022-10-29T02:30:35.807Z,3.60
2022-10-29T02:31:07.637Z,3.38
2022-10-29T02:31:41.768Z,2.90
2022-10-29T02:32:13.560Z,5.07
2022-10-29T02:32:45.531Z,3.53
2022-10-29T02:33:18.326Z,4.10
2022-10-29T02:33:50.449Z,3.85
2022-10-29T02:34:22.328Z,3.70
2022-10-29T02:34:55.092Z,3.45
2022-10-29T02:35:26.865Z,3.83
2022-10-29T02:35:58.725Z,3.65
2022-10-29T02:36:31.527Z,3.85
2022-10-29T02:37:03.328Z,3.25
2022-10-29T02:37:35.465Z,3.28
2022-10-29T02:38:08.195Z,3.40
2022-10-29T02:38:39.971Z,4.35
2022-10-29T02:39:11.761Z,4.93
2022-10-29T02:39:43.607Z,3.53
2022-10-29T02:40:16.973Z,4.55
2022-10-29T02:40:48.787Z,4.05
2022-10-29T02:41:20.563Z,4.88
2022-10-29T02:41:53.338Z,4.30
2022-10-29T02:42:25.636Z,3.55
2022-10-29T02:42:57.677Z,3.50
2022-10-29T02:43:30.665Z,4.05
2022-10-29T02:44:02.514Z,3.80
2022-10-29T02:44:34.413Z,3.22
2022-10-29T02:45:07.760Z,4.25
2022-10-29T02:45:39.611Z,3.15
2022-10-29T02:46:16.223Z,4.00
2022-10-29T02:46:49.364Z,3.75
2022-10-29T02:47:22.177Z,3.50
2022-10-29T02:47:54.316Z,3.80
2022-10-29T02:48:26.261Z,3.50
2022-10-29T02:48:58.987Z,3.88
2022-10-29T02:49:30.765Z,4.38
2022-10-29T02:50:02.582Z,3.85
2022-10-29T02:50:34.351Z,4.85
2022-10-29T02:51:07.307Z,3.70
2022-10-29T02:51:39.098Z,4.13
2022-10-29T02:52:10.952Z,3.45
2022-10-29T02:52:43.688Z,3.40
2022-10-29T02:53:15.476Z,3.90
2022-10-29T02:53:47.288Z,3.58
2022-10-29T02:54:19.083Z,4.30
2022-10-29T02:54:51.839Z,3.00
2022-10-29T02:55:23.675Z,5.65
2022-10-29T02:55:55.515Z,3.65
2022-10-29T02:56:28.348Z,3.85
2022-10-29T02:57:00.151Z,5.15
2022-10-29T02:57:31.935Z,3.80
2022-10-29T02:58:04.675Z,3.50
2022-10-29T02:58:37.041Z,3.95
2022-10-29T02:59:11.665Z,3.72
2022-10-29T02:59:44.906Z,4.57
2022-10-29T03:00:17.254Z,3.88
2022-10-29T03:00:50.070Z,3.80
2022-10-29T03:01:22.947Z,3.63
2022-10-29T03:01:56.490Z,3.60
2022-10-29T03:02:28.456Z,3.53
2022-10-29T03:03:00.819Z,3.95
2022-10-29T03:03:33.771Z,4.53
2022-10-29T03:04:05.732Z,3.08
2022-10-29T03:04:39.423Z,3.50
2022-10-29T03:05:12.527Z,4.50
2022-10-29T03:05:48.898Z,4.07
2022-10-29T03:06:21.400Z,3.75
2022-10-29T03:06:54.243Z,3.90
2022-10-29T03:07:26.058Z,3.22
2022-10-29T03:07:57.873Z,3.72
2022-10-29T03:08:29.675Z,3.85
2022-10-29T03:09:02.447Z,3.67
2022-10-29T03:09:34.319Z,3.47
2022-10-29T03:10:07.651Z,4.40
2022-10-29T03:10:39.663Z,4.68
2022-10-29T03:11:13.060Z,4.95
2022-10-29T03:11:44.837Z,3.70
2022-10-29T03:12:16.608Z,4.20
2022-10-29T03:12:49.335Z,3.47
2022-10-29T03:13:21.208Z,3.80
2022-10-29T03:13:53.012Z,3.70
2022-10-29T03:14:25.753Z,3.75
2022-10-29T03:14:57.852Z,4.80
2022-10-29T03:15:29.659Z,4.57
2022-10-29T03:16:01.546Z,3.15
2022-10-29T03:16:34.367Z,3.85
2022-10-29T03:17:07.490Z,3.58
2022-10-29T03:17:39.275Z,3.85
2022-10-29T03:18:11.520Z,3.78
2022-10-29T03:18:44.335Z,3.20
2022-10-29T03:19:16.119Z,3.00
2022-10-29T03:19:47.923Z,3.83
2022-10-29T03:20:20.684Z,3.40
2022-10-29T03:20:52.831Z,4.55
2022-10-29T03:21:24.796Z,3.15
2022-10-29T03:21:57.553Z,5.20
2022-10-29T03:22:29.367Z,3.13
2022-10-29T03:23:01.147Z,3.90
2022-10-29T03:23:33.946Z,3.95
2022-10-29T03:24:06.245Z,5.13
2022-10-29T03:24:38.028Z,3.70
2022-10-29T03:25:10.990Z,3.45
2022-10-29T03:25:42.766Z,3.38
2022-10-29T03:26:14.580Z,3.88
2022-10-29T03:26:47.331Z,4.18
2022-10-29T03:27:19.168Z,3.97
2022-10-29T03:27:51.008Z,3.88
2022-10-29T03:28:24.067Z,5.55
2022-10-29T03:28:57.000Z,3.47
2022-10-29T03:29:28.788Z,3.55
2022-10-29T03:30:00.595Z,4.32
2022-10-29T03:30:33.395Z,3.08
2022-10-29T03:31:05.633Z,2.78
2022-10-29T03:31:37.470Z,3.30
2022-10-29T03:32:11.573Z,3.05
2022-10-29T03:32:44.436Z,2.78
2022-10-29T03:33:16.239Z,3.58
2022-10-29T03:33:48.962Z,3.50
2022-10-29T03:34:20.772Z,3.17
2022-10-29T03:34:56.045Z,3.58
2022-10-29T03:35:31.857Z,3.80
2022-10-29T03:36:07.050Z,3.20
2022-10-29T03:36:38.931Z,3.78
2022-10-29T03:37:10.741Z,4.00
2022-10-29T03:37:42.665Z,3.25
2022-10-29T03:38:15.455Z,2.83
2022-10-29T03:38:47.316Z,3.97
2022-10-29T03:39:19.107Z,3.00
2022-10-29T03:39:51.845Z,4.32
2022-10-29T03:40:23.636Z,3.13
2022-10-29T03:40:55.839Z,3.05
2022-10-29T03:41:28.598Z,3.38
2022-10-29T03:42:00.421Z,3.50
2022-10-29T03:42:32.237Z,3.10
2022-10-29T03:43:04.019Z,3.45
2022-10-29T03:43:36.886Z,3.00
2022-10-29T03:44:08.836Z,2.85
2022-10-29T03:44:40.649Z,3.88
2022-10-29T03:45:13.662Z,3.05
2022-10-29T03:45:50.396Z,3.00
2022-10-29T03:46:22.183Z,3.88
2022-10-29T03:46:54.931Z,3.20
2022-10-29T03:47:28.412Z,4.00
2022-10-29T03:48:00.285Z,2.90
2022-10-29T03:48:33.312Z,3.20
2022-10-29T03:49:05.136Z,3.25
2022-10-29T03:49:36.931Z,2.63
2022-10-29T03:50:10.474Z,3.17
2022-10-29T03:50:42.289Z,3.13
2022-10-29T03:51:14.070Z,3.65
2022-10-29T03:51:46.875Z,2.88
2022-10-29T03:52:18.651Z,3.10
2022-10-29T03:52:50.419Z,2.70
2022-10-29T03:53:22.717Z,3.35
2022-10-29T03:53:55.462Z,2.55
2022-10-29T03:54:27.365Z,3.22
2022-10-29T03:54:59.142Z,3.05
2022-10-29T03:55:31.954Z,3.20
2022-10-29T03:56:04.573Z,3.10
2022-10-29T03:56:36.372Z,4.18
2022-10-29T03:57:09.198Z,2.88
2022-10-29T03:57:40.965Z,2.50
2022-10-29T03:58:12.750Z,2.60
2022-10-29T03:58:44.557Z,2.60
2022-10-29T03:59:17.283Z,2.90
2022-10-29T03:59:52.417Z,2.88
2022-10-29T04:00:24.648Z,2.78
2022-10-29T04:00:59.389Z,2.75
2022-10-29T04:01:31.237Z,2.50
2022-10-29T04:02:03.298Z,2.90
2022-10-29T04:02:37.510Z,3.50
2022-10-29T04:03:09.342Z,2.72
2022-10-29T04:03:42.211Z,3.00
2022-10-29T04:04:15.108Z,2.47
2022-10-29T04:04:46.953Z,2.95
2022-10-29T04:05:18.786Z,1.95
2022-10-29T04:05:51.595Z,3.70
2022-10-29T04:06:23.408Z,3.75
2022-10-29T04:06:55.268Z,3.80
2022-10-29T04:07:28.032Z,2.85
2022-10-29T04:07:59.814Z,2.83
2022-10-29T04:08:31.647Z,3.30
2022-10-29T04:09:04.598Z,3.22
2022-10-29T04:09:36.382Z,2.92
2022-10-29T04:10:08.889Z,3.00
2022-10-29T04:10:45.457Z,2.88
2022-10-29T04:11:17.243Z,2.65
2022-10-29T04:11:49.263Z,2.60
2022-10-29T04:12:21.068Z,2.83
2022-10-29T04:12:54.127Z,3.65
2022-10-29T04:13:26.258Z,2.78
2022-10-29T04:13:58.083Z,2.92
2022-10-29T04:14:29.976Z,2.58
2022-10-29T04:15:02.808Z,3.47
2022-10-29T04:15:34.617Z,2.30
2022-10-29T04:16:07.762Z,3.28
2022-10-29T04:16:39.751Z,2.58
2022-10-29T04:17:12.375Z,3.58
2022-10-29T04:17:46.450Z,2.90
2022-10-29T04:18:18.257Z,3.72
2022-10-29T04:18:50.459Z,3.10
2022-10-29T04:19:23.216Z,2.67
2022-10-29T04:19:55.043Z,2.42
2022-10-29T04:20:56.964Z,2.88
2022-10-29T04:24:24.656Z,2.90
2022-10-29T04:27:07.958Z,3.88
2022-10-29T04:29:12.030Z,2.60
2022-10-29T04:29:44.797Z,2.67
2022-10-29T04:30:16.669Z,4.93
2022-10-29T04:30:48.519Z,2.72
2022-10-29T04:31:21.314Z,3.13
2022-10-29T04:31:53.136Z,3.22
2022-10-29T04:32:25.066Z,2.65
2022-10-29T04:33:00.565Z,3.15
2022-10-29T04:33:32.556Z,2.97
2022-10-29T04:34:04.815Z,3.65
2022-10-29T04:34:37.623Z,3.78
2022-10-29T04:35:09.566Z,3.25
2022-10-29T04:35:41.405Z,2.70
2022-10-29T04:36:14.328Z,2.95
2022-10-29T04:36:46.131Z,2.58
2022-10-29T04:37:18.014Z,3.55
2022-10-29T04:37:50.808Z,4.40
2022-10-29T04:38:22.675Z,2.65
2022-10-29T04:38:54.480Z,4.50
2022-10-29T04:39:27.231Z,24.35
2022-10-29T04:39:59.046Z,27.92
2022-10-29T04:40:30.867Z,14.60
2022-10-29T04:41:05.137Z,14.05
2022-10-29T04:41:36.935Z,9.00
2022-10-29T04:42:08.939Z,7.15
2022-10-29T04:42:41.982Z,5.28
2022-10-29T04:43:13.860Z,3.38
2022-10-29T04:43:45.723Z,2.65
2022-10-29T04:44:19.968Z,3.90
2022-10-29T04:44:51.850Z,3.47
2022-10-29T04:45:23.626Z,2.90
2022-10-29T04:45:57.807Z,3.60
2022-10-29T04:46:29.582Z,3.10
2022-10-29T04:47:01.452Z,3.33
2022-10-29T04:47:33.760Z,2.85
2022-10-29T04:48:08.226Z,2.92
2022-10-29T04:48:40.046Z,2.88
2022-10-29T04:49:12.032Z,2.67
2022-10-29T04:49:45.096Z,3.00
2022-10-29T04:50:16.945Z,2.85
2022-10-29T04:50:48.805Z,4.20
2022-10-29T04:51:23.087Z,3.42
2022-10-29T04:51:54.960Z,3.00
2022-10-29T04:52:26.986Z,2.85
2022-10-29T04:53:00.172Z,3.10
2022-10-29T04:53:32.057Z,2.38
2022-10-29T04:54:04.330Z,2.85
2022-10-29T04:54:37.095Z,2.70
2022-10-29T04:55:09.233Z,3.60
2022-10-29T04:55:41.316Z,2.95
2022-10-29T04:56:13.138Z,2.85
2022-10-29T04:56:45.962Z,3.22
2022-10-29T04:57:18.144Z,3.00
2022-10-29T04:57:50.082Z,3.65
2022-10-29T04:58:22.804Z,3.40
2022-10-29T04:58:54.658Z,2.50
2022-10-29T04:59:26.417Z,2.85
2022-10-29T04:59:59.170Z,4.25
2022-10-29T05:00:31.130Z,2.90
2022-10-29T05:01:04.942Z,2.72
2022-10-29T05:01:37.866Z,2.90
2022-10-29T05:02:10.363Z,2.63
2022-10-29T05:02:42.213Z,3.42
2022-10-29T05:03:16.290Z,2.67
2022-10-29T05:03:48.060Z,2.78
2022-10-29T05:04:19.865Z,3.58
2022-10-29T05:04:52.640Z,2.05
2022-10-29T05:05:25.868Z,2.58
2022-10-29T05:05:57.723Z,2.50
2022-10-29T05:06:30.510Z,2.72
2022-10-29T05:07:02.368Z,4.05
2022-10-29T05:07:34.192Z,4.15
2022-10-29T05:08:07.763Z,2.78
2022-10-29T05:08:39.622Z,2.90
2022-10-29T05:09:11.428Z,2.35
2022-10-29T05:09:44.188Z,3.00
2022-10-29T05:10:16.195Z,2.83
2022-10-29T05:10:48.102Z,2.45
2022-10-29T05:11:20.913Z,3.17
2022-10-29T05:11:52.692Z,2.78
2022-10-29T05:12:24.503Z,2.80
2022-10-29T05:12:58.320Z,2.60
2022-10-29T05:13:31.796Z,2.75
2022-10-29T05:14:03.739Z,2.03
2022-10-29T05:14:35.527Z,2.47
2022-10-29T05:15:08.659Z,2.58
2022-10-29T05:15:40.766Z,2.00
2022-10-29T05:16:12.611Z,4.25
2022-10-29T05:16:45.604Z,3.00
2022-10-29T05:17:17.367Z,4.75
2022-10-29T05:17:49.150Z,2.78
2022-10-29T05:18:23.583Z,2.25
2022-10-29T05:18:55.396Z,2.78
2022-10-29T05:19:27.179Z,2.90
2022-10-29T05:19:59.911Z,2.88
2022-10-29T05:20:32.395Z,2.30
2022-10-29T05:21:04.503Z,3.50
2022-10-29T05:21:37.320Z,2.30
2022-10-29T05:22:09.227Z,3.35
2022-10-29T05:22:41.094Z,2.80
2022-10-29T05:23:13.941Z,2.45
2022-10-29T05:23:45.815Z,2.67
2022-10-29T05:24:17.703Z,2.65
2022-10-29T05:24:50.485Z,2.97
2022-10-29T05:25:22.346Z,2.40
2022-10-29T05:25:55.989Z,2.78
2022-10-29T05:26:30.880Z,3.15
2022-10-29T05:27:05.201Z,3.08
2022-10-29T05:27:37.119Z,2.55
2022-10-29T05:28:13.796Z,2.45
2022-10-29T05:28:45.695Z,2.22
2022-10-29T05:29:18.525Z,2.70
2022-10-29T05:29:50.386Z,2.92
2022-10-29T05:30:22.254Z,2.00
2022-10-29T05:30:55.140Z,2.88
2022-10-29T05:31:26.994Z,2.10
2022-10-29T05:31:58.867Z,2.90
2022-10-29T05:32:31.873Z,2.17
2022-10-29T05:33:06.775Z,2.95
2022-10-29T05:33:40.053Z,2.40
2022-10-29T05:34:12.936Z,1.90
2022-10-29T05:34:44.777Z,2.25
2022-10-29T05:35:16.589Z,3.20
2022-10-29T05:35:48.688Z,2.83
2022-10-29T05:36:21.500Z,2.70
2022-10-29T05:36:53.498Z,3.13
2022-10-29T05:37:25.620Z,2.67
2022-10-29T05:37:58.500Z,2.97
2022-10-29T05:38:30.349Z,2.95
2022-10-29T05:39:02.522Z,2.65
2022-10-29T05:39:35.376Z,2.05
2022-10-29T05:40:08.824Z,2.63
2022-10-29T05:40:42.743Z,3.20
2022-10-29T05:41:15.785Z,3.05
2022-10-29T05:41:48.161Z,3.47
2022-10-29T05:42:22.442Z,3.58
2022-10-29T05:42:55.512Z,2.70
2022-10-29T05:43:27.859Z,3.03
2022-10-29T05:43:59.808Z,3.25
2022-10-29T05:44:32.608Z,4.55
2022-10-29T05:45:04.850Z,2.55
2022-10-29T05:45:36.757Z,2.10
2022-10-29T05:46:09.532Z,2.75
2022-10-29T05:46:41.309Z,3.08
2022-10-29T05:47:13.086Z,2.83
2022-10-29T05:47:46.097Z,3.72
2022-10-29T05:48:17.978Z,3.58
2022-10-29T05:48:52.051Z,2.35
2022-10-29T05:49:23.929Z,2.92
2022-10-29T05:49:55.746Z,3.05
2022-10-29T05:50:29.647Z,2.80
2022-10-29T05:51:01.472Z,3.15
2022-10-29T05:51:34.275Z,2.30
2022-10-29T05:52:06.111Z,2.30
2022-10-29T05:52:37.917Z,1.90
2022-10-29T05:53:12.657Z,3.20
2022-10-29T05:53:44.475Z,2.45
2022-10-29T05:54:16.283Z,3.35
2022-10-29T05:54:49.021Z,2.72
2022-10-29T05:55:20.820Z,4.55
2022-10-29T05:55:52.669Z,2.72
2022-10-29T05:56:25.446Z,2.70
2022-10-29T05:57:02.971Z,3.38
2022-10-29T05:57:34.765Z,3.20
2022-10-29T05:58:10.689Z,2.40
2022-10-29T05:58:42.464Z,2.90
2022-10-29T05:59:14.290Z,2.78
2022-10-29T05:59:47.076Z,2.50
2022-10-29T06:00:18.980Z,2.80
2022-10-29T06:00:50.768Z,2.53
2022-10-29T06:01:23.627Z,4.13
2022-10-29T06:01:55.634Z,2.40
2022-10-29T06:02:27.773Z,3.92
2022-10-29T06:03:01.158Z,2.67
2022-10-29T06:03:33.333Z,4.25
2022-10-29T06:04:06.629Z,4.05
2022-10-29T06:04:39.472Z,3.15
2022-10-29T06:05:11.376Z,3.00
2022-10-29T06:05:43.268Z,3.33
2022-10-29T06:06:16.073Z,2.92
2022-10-29T06:06:47.939Z,2.78
2022-10-29T06:07:19.857Z,2.90
2022-10-29T06:07:55.608Z,2.30
2022-10-29T06:08:28.878Z,3.03
2022-10-29T06:09:00.758Z,3.17
2022-10-29T06:09:32.643Z,3.65
2022-10-29T06:10:06.365Z,3.05
2022-10-29T06:10:38.185Z,2.75
2022-10-29T06:11:10.078Z,3.67
2022-10-29T06:11:42.873Z,3.35
2022-10-29T06:12:14.717Z,4.95
2022-10-29T06:12:46.544Z,2.60
2022-10-29T06:13:20.503Z,2.60
2022-10-29T06:13:55.269Z,3.05
2022-10-29T06:14:27.142Z,2.83
2022-10-29T06:15:00.428Z,2.70
2022-10-29T06:15:32.249Z,3.90
2022-10-29T06:16:04.392Z,3.10
2022-10-29T06:16:37.433Z,5.38
2022-10-29T06:17:09.455Z,3.00
2022-10-29T06:17:42.093Z,3.45
2022-10-29T06:18:14.710Z,2.45
2022-10-29T06:18:47.637Z,2.90
2022-10-29T06:19:20.885Z,2.80
2022-10-29T06:19:52.794Z,2.58
2022-10-29T06:20:24.691Z,2.53
2022-10-29T06:20:59.316Z,3.00
2022-10-29T06:21:31.154Z,3.10
2022-10-29T06:22:05.707Z,2.88
2022-10-29T06:22:38.647Z,3.08
2022-10-29T06:23:11.527Z,2.92
2022-10-29T06:23:44.363Z,2.38
2022-10-29T06:24:16.240Z,2.50
2022-10-29T06:24:48.066Z,3.05
2022-10-29T06:25:20.844Z,2.83
2022-10-29T06:25:52.675Z,2.65
2022-10-29T06:26:24.491Z,3.13
2022-10-29T06:26:57.302Z,4.97
2022-10-29T06:27:29.122Z,2.35
2022-10-29T06:28:02.315Z,3.10
2022-10-29T06:28:35.748Z,2.67
2022-10-29T06:29:07.652Z,2.88
2022-10-29T06:29:39.493Z,4.05
2022-10-29T06:30:13.572Z,2.92
2022-10-29T06:30:47.371Z,3.45
2022-10-29T06:31:19.251Z,4.53
2022-10-29T06:31:52.048Z,3.28
2022-10-29T06:32:23.970Z,2.50
2022-10-29T06:32:56.218Z,3.47
2022-10-29T06:33:29.286Z,3.17
2022-10-29T06:34:01.107Z,4.15
2022-10-29T06:34:34.232Z,2.85
2022-10-29T06:35:07.865Z,2.50
2022-10-29T06:35:39.832Z,2.67
2022-10-29T06:36:12.756Z,2.90
2022-10-29T06:36:44.588Z,3.15
2022-10-29T06:37:16.593Z,3.42
2022-10-29T06:37:49.603Z,3.10
2022-10-29T06:38:21.428Z,3.15
2022-10-29T06:38:53.204Z,3.35
2022-10-29T06:39:26.062Z,3.10
2022-10-29T06:39:57.880Z,4.10
2022-10-29T06:40:29.692Z,3.15
2022-10-29T06:41:02.489Z,3.38
2022-10-29T06:41:34.352Z,3.00
2022-10-29T06:42:07.308Z,2.20
2022-10-29T06:42:39.172Z,3.15
2022-10-29T06:43:12.230Z,3.35
2022-10-29T06:43:44.981Z,3.78
2022-10-29T06:44:16.760Z,3.35
2022-10-29T06:44:48.592Z,4.50
2022-10-29T06:45:21.462Z,3.45
2022-10-29T06:45:53.252Z,3.83
2022-10-29T06:46:25.083Z,2.83
2022-10-29T06:46:57.859Z,3.00
2022-10-29T06:47:29.664Z,3.22
2022-10-29T06:48:02.136Z,3.60
2022-10-29T06:48:34.935Z,4.68
2022-10-29T06:49:06.819Z,3.55
2022-10-29T06:49:40.084Z,2.47
2022-10-29T06:50:14.452Z,3.15
2022-10-29T06:50:46.259Z,3.38
2022-10-29T06:51:18.102Z,2.70
2022-10-29T06:51:50.909Z,5.07
2022-10-29T06:52:22.734Z,4.78
2022-10-29T06:52:56.622Z,2.83
2022-10-29T06:53:29.577Z,3.25
2022-10-29T06:54:01.397Z,3.38
2022-10-29T06:54:33.192Z,3.05
2022-10-29T06:55:06.925Z,3.20
2022-10-29T06:55:39.825Z,3.25
2022-10-29T06:56:11.730Z,3.10
2022-10-29T06:56:43.530Z,4.28
2022-10-29T06:57:16.297Z,3.65
2022-10-29T06:57:48.638Z,2.75
2022-10-29T06:58:22.218Z,3.17
2022-10-29T06:58:54.021Z,3.00
2022-10-29T06:59:25.860Z,2.70
2022-10-29T06:59:57.719Z,3.58
2022-10-29T07:00:31.459Z,3.90
2022-10-29T07:01:03.847Z,3.53
2022-10-29T07:01:35.680Z,3.88
2022-10-29T07:02:11.418Z,4.00
2022-10-29T07:02:43.221Z,4.05
2022-10-29T07:03:16.584Z,5.15
2022-10-29T07:03:50.329Z,3.92
2022-10-29T07:04:22.233Z,3.25
2022-10-29T07:04:55.440Z,4.55
2022-10-29T07:05:28.880Z,3.35
2022-10-29T07:06:00.717Z,3.97
2022-10-29T07:06:33.764Z,3.70
2022-10-29T07:07:06.493Z,4.45
2022-10-29T07:07:38.366Z,4.00
2022-10-29T07:08:10.925Z,3.35
2022-10-29T07:08:43.836Z,3.08
2022-10-29T07:09:15.751Z,3.38
2022-10-29T07:09:47.554Z,3.95
2022-10-29T07:10:20.310Z,4.45
2022-10-29T07:10:53.320Z,4.18
2022-10-29T07:11:25.123Z,6.15
2022-10-29T07:11:57.959Z,10.73
2022-10-29T07:12:29.838Z,6.93
2022-10-29T07:13:02.230Z,7.63
2022-10-29T07:13:35.012Z,7.00
2022-10-29T07:14:08.486Z,6.40
2022-10-29T07:14:40.266Z,4.93
2022-10-29T07:15:13.885Z,6.38
2022-10-29T07:15:45.813Z,4.90
2022-10-29T07:16:17.593Z,4.05
2022-10-29T07:16:50.401Z,3.95
2022-10-29T07:17:22.267Z,4.40
2022-10-29T07:17:58.532Z,5.70
2022-10-29T07:18:32.776Z,4.75
2022-10-29T07:19:04.979Z,4.57
2022-10-29T07:19:36.788Z,4.63
2022-10-29T07:20:12.138Z,3.67
2022-10-29T07:20:45.376Z,3.75
2022-10-29T07:21:18.152Z,3.42
2022-10-29T07:21:50.015Z,3.67
2022-10-29T07:22:21.790Z,4.07
2022-10-29T07:22:54.612Z,5.38
2022-10-29T07:23:26.421Z,3.72
2022-10-29T07:23:59.432Z,3.20
2022-10-29T07:24:31.236Z,5.05
2022-10-29T07:25:03.206Z,3.78
2022-10-29T07:25:37.413Z,3.80
2022-10-29T07:26:09.242Z,3.70
2022-10-29T07:26:41.035Z,3.95
2022-10-29T07:27:13.928Z,3.78
2022-10-29T07:27:45.996Z,3.65
2022-10-29T07:28:21.509Z,4.63
2022-10-29T07:28:56.859Z,6.22
2022-10-29T07:29:30.016Z,18.33
2022-10-29T07:30:01.856Z,17.75
2022-10-29T07:30:34.210Z,41.70
2022-10-29T07:31:07.692Z,25.75
2022-10-29T07:31:39.555Z,23.38
2022-10-29T07:32:11.346Z,15.73
2022-10-29T07:32:44.213Z,13.15
2022-10-29T07:33:16.417Z,9.98
2022-10-29T07:33:49.286Z,8.00
2022-10-29T07:34:21.156Z,10.38
2022-10-29T07:34:52.979Z,6.60
2022-10-29T07:35:27.180Z,6.50
2022-10-29T07:35:59.507Z,6.85
2022-10-29T07:36:31.399Z,6.00